SUN30Q EGGD-EHAM
Flight info
| Callsign | SUN30Q |
|---|---|
| Flight time | N/A |
| Altitude | 29000 |
| Route | YORQI L607 ALHAD P72 IPRIL M197 REDFA |
| Aircraft | A320/M-SDE3FGHIRWY/LB1 |
Departure
| Time | 2026-05-03 23:05 |
|---|---|
| Airport | Bristol Airport (EGGD) |
Arrival
| Time | N/A |
|---|---|
| Airport | Amsterdam Airport Schiphol (EHAM) |
| Time | Latitude | Longitude | Altitude | Speed | Heading |
|---|---|---|---|---|---|
| 2026-05-03 22:55 | 51.38540 | -2.71609 | 612 ft | 0 kts | 358° |
| 2026-05-03 22:59 | 51.38531 | -2.71608 | 617 ft | 3 kts | 357° |
| 2026-05-03 22:59 | 51.38510 | -2.71607 | 621 ft | 3 kts | 357° |
| 2026-05-03 22:59 | 51.38490 | -2.71605 | 620 ft | 3 kts | 357° |
| 2026-05-03 22:59 | 51.38470 | -2.71603 | 618 ft | 3 kts | 356° |
| 2026-05-03 23:00 | 51.38453 | -2.71598 | 619 ft | 3 kts | 322° |
| 2026-05-03 23:00 | 51.38442 | -2.71577 | 624 ft | 3 kts | 276° |
| 2026-05-03 23:00 | 51.38442 | -2.71559 | 612 ft | 2 kts | 266° |
| 2026-05-03 23:00 | 51.38442 | -2.71551 | 614 ft | 1 kts | 266° |
| 2026-05-03 23:02 | 51.38439 | -2.71640 | 621 ft | 16 kts | 266° |
| 2026-05-03 23:02 | 51.38432 | -2.71836 | 606 ft | 18 kts | 269° |
| 2026-05-03 23:02 | 51.38432 | -2.72038 | 605 ft | 18 kts | 267° |
| 2026-05-03 23:03 | 51.38426 | -2.72242 | 619 ft | 18 kts | 268° |
| 2026-05-03 23:03 | 51.38413 | -2.72496 | 612 ft | 25 kts | 266° |
| 2026-05-03 23:03 | 51.38403 | -2.72789 | 611 ft | 28 kts | 267° |
| 2026-05-03 23:03 | 51.38392 | -2.73107 | 606 ft | 25 kts | 266° |
| 2026-05-03 23:04 | 51.38365 | -2.73299 | 613 ft | 15 kts | 230° |
| 2026-05-03 23:04 | 51.38286 | -2.73341 | 619 ft | 13 kts | 178° |
| 2026-05-03 23:04 | 51.38215 | -2.73331 | 622 ft | 5 kts | 154° |
| 2026-05-03 23:04 | 51.38217 | -2.73197 | 627 ft | 39 kts | 86° |
| 2026-05-03 23:05 | 51.38250 | -2.72340 | 626 ft | 112 kts | 86° |
| 2026-05-03 23:05 | 51.38305 | -2.70785 | 738 ft | 153 kts | 89° |
| 2026-05-03 23:05 | 51.38351 | -2.69126 | 1515 ft | 143 kts | 90° |
| 2026-05-03 23:05 | 51.38400 | -2.67540 | 2096 ft | 146 kts | 88° |
| 2026-05-03 23:06 | 51.38452 | -2.65878 | 2532 ft | 152 kts | 87° |
| 2026-05-03 23:06 | 51.38515 | -2.64128 | 2766 ft | 169 kts | 88° |
| 2026-05-03 23:06 | 51.38579 | -2.62077 | 2868 ft | 198 kts | 88° |
| 2026-05-03 23:06 | 51.38650 | -2.59789 | 3097 ft | 223 kts | 88° |
| 2026-05-03 23:07 | 51.38781 | -2.57186 | 3434 ft | 247 kts | 77° |